BOX525 OBBI-EDDP
Flight info
| Callsign | BOX525 |
|---|---|
| Flight time | N/A |
| Altitude | 27000 |
| Route | GOLKO N318 VELAM P708 VUTAN N318 KAPUM N685 ODKUN/N0501F280 L519 ATUDO DCT 21N053E DCT IMPOS B424 ITOLI M301 SAA R777 DANAK M999 ABKAR/N0504F300 M999 LOVIL B544 JDW M686 ORKEN L315 HGD V603 GIDID T91 EMOVA L677 CVO L617 NOZ L551 ANTAR UN133 SOTIX/N0494F320 UN133 GIKAS UG18 FSK UN128 RUGAS DCT RAMAP DCT ADULA DCT GOTAR DCT DEXIT DCT SULED DCT MAXEB MAXEB2M |
| Aircraft | B77L/H-SDE1E2E3FGHIJ2J3J4J5M1RWXY/LB1D1 |
Departure
| Time | 2026-05-08 11:51 |
|---|---|
| Airport | Bahrain International Airport (OBBI) |
Arrival
| Time | N/A |
|---|---|
| Airport | Leipzig/Halle Airport (EDDP) |
| Time | Latitude | Longitude | Altitude | Speed | Heading |
|---|---|---|---|---|---|
| 2026-05-08 11:13 | 26.27343 | 50.62160 | 18 ft | 0 kts | 213° |
| 2026-05-08 11:19 | 26.27344 | 50.62160 | 18 ft | 0 kts | 213° |
| 2026-05-08 11:22 | 26.27343 | 50.62160 | 18 ft | 0 kts | 213° |
| 2026-05-08 11:38 | 26.27344 | 50.62161 | 18 ft | 0 kts | 213° |
| 2026-05-08 11:40 | 26.27349 | 50.62164 | 18 ft | 2 kts | 213° |
| 2026-05-08 11:40 | 26.27362 | 50.62174 | 18 ft | 2 kts | 216° |
| 2026-05-08 11:40 | 26.27373 | 50.62185 | 18 ft | 2 kts | 238° |
| 2026-05-08 11:41 | 26.27379 | 50.62200 | 18 ft | 2 kts | 255° |
| 2026-05-08 11:41 | 26.27381 | 50.62216 | 18 ft | 2 kts | 272° |
| 2026-05-08 11:41 | 26.27379 | 50.62233 | 18 ft | 2 kts | 290° |
| 2026-05-08 11:41 | 26.27375 | 50.62243 | 18 ft | 0 kts | 303° |
| 2026-05-08 11:42 | 26.27372 | 50.62247 | 18 ft | 0 kts | 303° |
| 2026-05-08 11:44 | 26.27374 | 50.62244 | 18 ft | 1 kts | 303° |
| 2026-05-08 11:45 | 26.27384 | 50.62226 | 18 ft | 4 kts | 301° |
| 2026-05-08 11:45 | 26.27407 | 50.62184 | 18 ft | 8 kts | 305° |
| 2026-05-08 11:45 | 26.27462 | 50.62158 | 18 ft | 10 kts | 20° |
| 2026-05-08 11:45 | 26.27528 | 50.62214 | 18 ft | 12 kts | 68° |
| 2026-05-08 11:46 | 26.27496 | 50.62313 | 18 ft | 14 kts | 123° |
| 2026-05-08 11:46 | 26.27442 | 50.62407 | 18 ft | 14 kts | 122° |
| 2026-05-08 11:46 | 26.27386 | 50.62503 | 18 ft | 14 kts | 123° |
| 2026-05-08 11:46 | 26.27329 | 50.62602 | 18 ft | 15 kts | 123° |
| 2026-05-08 11:47 | 26.27269 | 50.62706 | 18 ft | 17 kts | 122° |
| 2026-05-08 11:47 | 26.27201 | 50.62824 | 18 ft | 19 kts | 122° |
| 2026-05-08 11:47 | 26.27117 | 50.62957 | 18 ft | 22 kts | 128° |
| 2026-05-08 11:47 | 26.27022 | 50.63117 | 18 ft | 26 kts | 122° |
| 2026-05-08 11:48 | 26.26912 | 50.63305 | 18 ft | 31 kts | 123° |
| 2026-05-08 11:48 | 26.26782 | 50.63528 | 18 ft | 37 kts | 123° |
| 2026-05-08 11:48 | 26.26631 | 50.63786 | 18 ft | 42 kts | 122° |
| 2026-05-08 11:48 | 26.26464 | 50.64077 | 18 ft | 46 kts | 122° |
| 2026-05-08 11:49 | 26.26279 | 50.64394 | 18 ft | 51 kts | 123° |
| 2026-05-08 11:49 | 26.26105 | 50.64697 | 18 ft | 33 kts | 123° |
| 2026-05-08 11:49 | 26.26001 | 50.64887 | 18 ft | 19 kts | 102° |
| 2026-05-08 11:49 | 26.26070 | 50.64981 | 18 ft | 15 kts | 33° |
| 2026-05-08 11:50 | 26.26151 | 50.64974 | 18 ft | 11 kts | 313° |
| 2026-05-08 11:50 | 26.26170 | 50.64945 | 18 ft | 0 kts | 303° |
| 2026-05-08 11:50 | 26.26171 | 50.64943 | 18 ft | 2 kts | 303° |
| 2026-05-08 11:50 | 26.26274 | 50.64769 | 18 ft | 55 kts | 303° |
| 2026-05-08 11:51 | 26.26590 | 50.64223 | 18 ft | 111 kts | 303° |
| 2026-05-08 11:51 | 26.27109 | 50.63323 | 18 ft | 162 kts | 303° |
| 2026-05-08 11:51 | 26.27779 | 50.62179 | 228 ft | 184 kts | 306° |
| 2026-05-08 11:51 | 26.28475 | 50.60983 | 720 ft | 189 kts | 306° |
| 2026-05-08 11:52 | 26.29203 | 50.59734 | 1269 ft | 195 kts | 307° |
| 2026-05-08 11:52 | 26.29974 | 50.58417 | 1514 ft | 212 kts | 308° |
| 2026-05-08 11:52 | 26.30815 | 50.56983 | 1792 ft | 229 kts | 308° |
| 2026-05-08 11:52 | 26.31764 | 50.55505 | 2066 ft | 243 kts | 321° |
| 2026-05-08 11:53 | 26.33231 | 50.54573 | 2498 ft | 245 kts | 348° |
| 2026-05-08 11:53 | 26.34921 | 50.54497 | 3119 ft | 246 kts | 11° |
| 2026-05-08 11:53 | 26.36525 | 50.55221 | 3552 ft | 257 kts | 36° |
| 2026-05-08 11:53 | 26.37708 | 50.56720 | 4195 ft | 262 kts | 61° |
| 2026-05-08 11:54 | 26.38201 | 50.58686 | 4648 ft | 275 kts | 88° |
| 2026-05-08 11:54 | 26.37921 | 50.60834 | 5228 ft | 280 kts | 102° |
| 2026-05-08 11:54 | 26.37464 | 50.62919 | 5870 ft | 280 kts | 103° |
| 2026-05-08 11:54 | 26.36988 | 50.65050 | 6431 ft | 284 kts | 103° |
| 2026-05-08 11:55 | 26.36510 | 50.67179 | 6967 ft | 288 kts | 103° |
| 2026-05-08 11:55 | 26.36026 | 50.69340 | 7533 ft | 289 kts | 103° |
| 2026-05-08 11:55 | 26.35534 | 50.71527 | 8006 ft | 294 kts | 104° |
| 2026-05-08 11:55 | 26.35043 | 50.73715 | 8549 ft | 295 kts | 104° |
| 2026-05-08 11:56 | 26.34539 | 50.75954 | 9126 ft | 297 kts | 104° |
| 2026-05-08 11:56 | 26.34034 | 50.78194 | 9586 ft | 301 kts | 104° |
| 2026-05-08 11:56 | 26.33528 | 50.80442 | 10105 ft | 302 kts | 104° |
| 2026-05-08 11:56 | 26.33018 | 50.82705 | 10621 ft | 307 kts | 104° |
| 2026-05-08 11:57 | 26.32485 | 50.85061 | 10884 ft | 321 kts | 104° |
| 2026-05-08 11:57 | 26.31924 | 50.87546 | 11068 ft | 338 kts | 104° |
| 2026-05-08 11:57 | 26.31342 | 50.90120 | 11267 ft | 353 kts | 104° |
| 2026-05-08 11:57 | 26.30719 | 50.92859 | 11499 ft | 368 kts | 106° |
| 2026-05-08 11:58 | 26.29819 | 50.95559 | 11729 ft | 382 kts | 116° |
| 2026-05-08 11:58 | 26.28547 | 50.98194 | 11979 ft | 395 kts | 120° |
| 2026-05-08 11:58 | 26.27189 | 51.00892 | 12356 ft | 404 kts | 120° |
| 2026-05-08 11:59 | 26.24419 | 51.06392 | 13499 ft | 410 kts | 120° |
| 2026-05-08 11:59 | 26.23028 | 51.09157 | 14054 ft | 412 kts | 120° |
| 2026-05-08 11:59 | 26.21627 | 51.11942 | 14574 ft | 416 kts | 121° |
| 2026-05-08 11:59 | 26.20201 | 51.14775 | 15107 ft | 419 kts | 121° |
| 2026-05-08 12:00 | 26.18776 | 51.17607 | 15640 ft | 422 kts | 121° |
| 2026-05-08 12:00 | 26.17348 | 51.20441 | 16147 ft | 424 kts | 121° |
| 2026-05-08 12:00 | 26.15905 | 51.23306 | 16659 ft | 427 kts | 122° |
| 2026-05-08 12:00 | 26.14442 | 51.26206 | 17154 ft | 430 kts | 122° |
| 2026-05-08 12:01 | 26.12989 | 51.29086 | 17642 ft | 432 kts | 122° |
| 2026-05-08 12:01 | 26.11510 | 51.32014 | 18082 ft | 436 kts | 122° |
| 2026-05-08 12:01 | 26.10017 | 51.34969 | 18470 ft | 441 kts | 122° |
| 2026-05-08 12:01 | 26.08506 | 51.37958 | 18891 ft | 445 kts | 122° |
| 2026-05-08 12:02 | 26.06976 | 51.40983 | 19323 ft | 448 kts | 122° |
| 2026-05-08 12:02 | 26.05448 | 51.44000 | 19696 ft | 453 kts | 122° |
| 2026-05-08 12:02 | 26.03900 | 51.47054 | 20090 ft | 456 kts | 122° |
| 2026-05-08 12:02 | 26.02348 | 51.50116 | 20488 ft | 459 kts | 122° |
| 2026-05-08 12:03 | 26.00765 | 51.53236 | 20864 ft | 463 kts | 122° |
| 2026-05-08 12:03 | 25.99180 | 51.56356 | 21245 ft | 466 kts | 122° |
| 2026-05-08 12:03 | 25.97593 | 51.59481 | 21601 ft | 470 kts | 122° |
| 2026-05-08 12:03 | 25.95978 | 51.62657 | 21967 ft | 473 kts | 122° |
| 2026-05-08 12:04 | 25.94353 | 51.65850 | 22318 ft | 476 kts | 123° |
| 2026-05-08 12:04 | 25.92714 | 51.69069 | 22656 ft | 479 kts | 123° |
| 2026-05-08 12:04 | 25.91081 | 51.72273 | 22985 ft | 483 kts | 123° |
| 2026-05-08 12:04 | 25.89447 | 51.75529 | 23289 ft | 486 kts | 122° |
| 2026-05-08 12:05 | 25.87837 | 51.78829 | 23664 ft | 488 kts | 122° |
| 2026-05-08 12:05 | 25.86223 | 51.82141 | 24037 ft | 490 kts | 122° |
| 2026-05-08 12:05 | 25.84592 | 51.85480 | 24369 ft | 492 kts | 122° |
| 2026-05-08 12:05 | 25.82964 | 51.88856 | 24693 ft | 496 kts | 120° |
| 2026-05-08 12:06 | 25.81516 | 51.92281 | 25004 ft | 500 kts | 118° |
| 2026-05-08 12:06 | 25.80051 | 51.95835 | 25320 ft | 503 kts | 118° |
| 2026-05-08 12:06 | 25.78595 | 51.99351 | 25644 ft | 505 kts | 118° |
| 2026-05-08 12:06 | 25.77128 | 52.02878 | 25982 ft | 508 kts | 118° |
| 2026-05-08 12:07 | 25.75645 | 52.06430 | 26292 ft | 511 kts | 118° |
| 2026-05-08 12:07 | 25.74149 | 52.10001 | 26588 ft | 514 kts | 118° |
| 2026-05-08 12:07 | 25.72627 | 52.13624 | 26789 ft | 518 kts | 118° |
| 2026-05-08 12:07 | 25.71120 | 52.17206 | 26798 ft | 517 kts | 118° |
| 2026-05-08 12:08 | 25.69589 | 52.20839 | 26797 ft | 516 kts | 118° |
| 2026-05-08 12:08 | 25.68088 | 52.24397 | 26795 ft | 515 kts | 118° |
| 2026-05-08 12:08 | 25.66564 | 52.28004 | 26794 ft | 517 kts | 118° |
| 2026-05-08 12:08 | 25.65036 | 52.31615 | 26795 ft | 517 kts | 118° |
| 2026-05-08 12:09 | 25.63520 | 52.35193 | 26797 ft | 516 kts | 118° |
| 2026-05-08 12:09 | 25.61989 | 52.38802 | 26796 ft | 516 kts | 118° |
| 2026-05-08 12:09 | 25.60387 | 52.42316 | 26799 ft | 513 kts | 122° |
| 2026-05-08 12:09 | 25.58644 | 52.45734 | 26801 ft | 513 kts | 123° |
| 2026-05-08 12:10 | 25.56869 | 52.49192 | 26800 ft | 513 kts | 123° |
| 2026-05-08 12:10 | 25.55110 | 52.52629 | 26798 ft | 513 kts | 122° |
| 2026-05-08 12:10 | 25.53377 | 52.56023 | 26797 ft | 513 kts | 122° |
| 2026-05-08 12:10 | 25.51606 | 52.59501 | 26796 ft | 513 kts | 122° |
| 2026-05-08 12:11 | 25.49869 | 52.62912 | 26795 ft | 513 kts | 122° |
| 2026-05-08 12:11 | 25.48128 | 52.66336 | 26793 ft | 513 kts | 122° |
| 2026-05-08 12:11 | 25.46373 | 52.69789 | 26791 ft | 513 kts | 122° |
| 2026-05-08 12:11 | 25.44624 | 52.73224 | 26788 ft | 513 kts | 123° |
| 2026-05-08 12:12 | 25.42808 | 52.76586 | 26787 ft | 512 kts | 124° |
| 2026-05-08 12:12 | 25.40943 | 52.79969 | 26785 ft | 512 kts | 124° |
| 2026-05-08 12:12 | 25.39069 | 52.83329 | 26784 ft | 512 kts | 125° |
| 2026-05-08 12:12 | 25.37212 | 52.86643 | 26780 ft | 513 kts | 125° |
| 2026-05-08 12:13 | 25.35329 | 52.90007 | 26777 ft | 512 kts | 125° |
| 2026-05-08 12:13 | 25.33457 | 52.93353 | 26775 ft | 512 kts | 124° |
| 2026-05-08 12:13 | 25.31650 | 52.96730 | 26763 ft | 514 kts | 120° |
| 2026-05-08 12:13 | 25.30109 | 53.00318 | 26769 ft | 516 kts | 117° |
| 2026-05-08 12:14 | 25.28644 | 53.03894 | 26763 ft | 515 kts | 117° |
| 2026-05-08 12:14 | 25.27166 | 53.07513 | 26765 ft | 515 kts | 117° |
| 2026-05-08 12:14 | 25.25690 | 53.11122 | 26764 ft | 514 kts | 117° |
| 2026-05-08 12:14 | 25.24233 | 53.14681 | 26765 ft | 514 kts | 117° |
| 2026-05-08 12:15 | 25.22748 | 53.18303 | 26765 ft | 514 kts | 117° |
| 2026-05-08 12:15 | 25.21280 | 53.21880 | 26762 ft | 514 kts | 117° |
| 2026-05-08 12:15 | 25.19812 | 53.25454 | 26765 ft | 514 kts | 117° |
| 2026-05-08 12:15 | 25.18267 | 53.28995 | 26757 ft | 513 kts | 122° |
| 2026-05-08 12:16 | 25.16323 | 53.32288 | 26764 ft | 509 kts | 130° |
| 2026-05-08 12:16 | 25.14119 | 53.35326 | 26770 ft | 509 kts | 131° |
| 2026-05-08 12:16 | 25.11873 | 53.38334 | 26770 ft | 508 kts | 132° |
| 2026-05-08 12:16 | 25.09633 | 53.41327 | 26772 ft | 508 kts | 132° |
| 2026-05-08 12:17 | 25.07388 | 53.44323 | 26772 ft | 507 kts | 132° |
| 2026-05-08 12:17 | 25.05123 | 53.47346 | 26773 ft | 508 kts | 132° |
| 2026-05-08 12:17 | 25.02872 | 53.50346 | 26776 ft | 508 kts | 131° |
| 2026-05-08 12:17 | 25.00636 | 53.53325 | 26770 ft | 507 kts | 132° |
| 2026-05-08 12:18 | 24.98389 | 53.56319 | 26775 ft | 507 kts | 131° |
| 2026-05-08 12:18 | 24.96331 | 53.59477 | 26768 ft | 510 kts | 124° |
| 2026-05-08 12:18 | 24.94498 | 53.62830 | 26772 ft | 510 kts | 122° |
| 2026-05-08 12:18 | 24.92695 | 53.66193 | 26771 ft | 510 kts | 123° |
| 2026-05-08 12:19 | 24.90894 | 53.69553 | 26769 ft | 510 kts | 123° |
| 2026-05-08 12:19 | 24.89094 | 53.72905 | 26771 ft | 511 kts | 123° |
| 2026-05-08 12:19 | 24.87276 | 53.76286 | 26771 ft | 511 kts | 123° |
| 2026-05-08 12:19 | 24.85486 | 53.79613 | 26773 ft | 512 kts | 123° |
| 2026-05-08 12:20 | 24.83675 | 53.82974 | 26771 ft | 511 kts | 123° |
| 2026-05-08 12:20 | 24.81846 | 53.86367 | 26771 ft | 511 kts | 123° |
| 2026-05-08 12:20 | 24.80044 | 53.89706 | 26773 ft | 510 kts | 123° |
| 2026-05-08 12:20 | 24.78241 | 53.93044 | 26773 ft | 510 kts | 123° |
| 2026-05-08 12:21 | 24.76427 | 53.96400 | 26774 ft | 510 kts | 123° |
| 2026-05-08 12:21 | 24.74653 | 53.99786 | 26771 ft | 510 kts | 119° |
| 2026-05-08 12:21 | 24.73163 | 54.03322 | 26784 ft | 512 kts | 116° |
| 2026-05-08 12:21 | 24.71739 | 54.06884 | 26783 ft | 512 kts | 115° |
| 2026-05-08 12:22 | 24.70313 | 54.10465 | 26787 ft | 512 kts | 115° |
| 2026-05-08 12:22 | 24.68883 | 54.14046 | 26785 ft | 512 kts | 115° |
| 2026-05-08 12:22 | 24.67454 | 54.17623 | 26785 ft | 512 kts | 115° |
| 2026-05-08 12:22 | 24.66026 | 54.21191 | 26782 ft | 512 kts | 115° |
| 2026-05-08 12:23 | 24.64596 | 54.24760 | 26781 ft | 512 kts | 115° |
| 2026-05-08 12:23 | 24.63160 | 54.28338 | 26782 ft | 512 kts | 115° |
| 2026-05-08 12:23 | 24.61717 | 54.31932 | 26784 ft | 513 kts | 115° |
| 2026-05-08 12:23 | 24.60273 | 54.35524 | 26784 ft | 513 kts | 115° |
| 2026-05-08 12:24 | 24.58833 | 54.39083 | 26779 ft | 513 kts | 117° |
| 2026-05-08 12:24 | 24.57154 | 54.42482 | 26782 ft | 511 kts | 122° |
| 2026-05-08 12:24 | 24.55321 | 54.45841 | 26778 ft | 511 kts | 123° |
| 2026-05-08 12:24 | 24.53489 | 54.49171 | 26775 ft | 511 kts | 122° |
| 2026-05-08 12:25 | 24.51644 | 54.52520 | 26775 ft | 511 kts | 122° |
| 2026-05-08 12:25 | 24.49751 | 54.55786 | 26767 ft | 510 kts | 127° |
| 2026-05-08 12:25 | 24.47460 | 54.58792 | 26771 ft | 508 kts | 136° |
| 2026-05-08 12:25 | 24.44824 | 54.61373 | 26847 ft | 510 kts | 144° |
| 2026-05-08 12:26 | 24.41862 | 54.63502 | 27183 ft | 507 kts | 153° |
| 2026-05-08 12:26 | 24.38682 | 54.65120 | 27651 ft | 502 kts | 161° |
| 2026-05-08 12:26 | 24.35337 | 54.66252 | 27758 ft | 501 kts | 169° |
| 2026-05-08 12:26 | 24.31938 | 54.66856 | 27754 ft | 496 kts | 176° |
| 2026-05-08 12:27 | 24.28487 | 54.66935 | 27755 ft | 492 kts | 184° |
| 2026-05-08 12:27 | 24.25098 | 54.66494 | 27755 ft | 491 kts | 192° |
| 2026-05-08 12:27 | 24.21794 | 54.65545 | 27754 ft | 491 kts | 200° |
| 2026-05-08 12:27 | 24.18633 | 54.64083 | 27758 ft | 490 kts | 206° |
| 2026-05-08 12:28 | 24.15566 | 54.62466 | 27754 ft | 490 kts | 206° |
| 2026-05-08 12:28 | 24.12517 | 54.60856 | 27757 ft | 489 kts | 206° |
| 2026-05-08 12:28 | 24.09417 | 54.59219 | 27760 ft | 490 kts | 206° |
| 2026-05-08 12:28 | 24.06338 | 54.57594 | 27763 ft | 490 kts | 206° |
| 2026-05-08 12:29 | 24.03286 | 54.55985 | 27764 ft | 490 kts | 206° |
| 2026-05-08 12:29 | 24.00228 | 54.54373 | 27765 ft | 490 kts | 206° |
| 2026-05-08 12:29 | 23.97126 | 54.52738 | 27767 ft | 490 kts | 206° |
| 2026-05-08 12:29 | 23.94056 | 54.51121 | 27766 ft | 490 kts | 206° |
| 2026-05-08 12:30 | 23.90997 | 54.49512 | 27767 ft | 490 kts | 206° |
| 2026-05-08 12:30 | 23.87918 | 54.47892 | 27772 ft | 490 kts | 206° |
| 2026-05-08 12:30 | 23.84830 | 54.46269 | 27771 ft | 490 kts | 206° |
| 2026-05-08 12:30 | 23.81775 | 54.44663 | 27773 ft | 491 kts | 206° |
| 2026-05-08 12:31 | 23.78691 | 54.43044 | 27774 ft | 490 kts | 206° |
| 2026-05-08 12:31 | 23.75602 | 54.41422 | 27773 ft | 490 kts | 206° |
| 2026-05-08 12:31 | 23.72550 | 54.39820 | 27775 ft | 491 kts | 206° |
| 2026-05-08 12:31 | 23.69446 | 54.38193 | 27777 ft | 491 kts | 206° |
| 2026-05-08 12:32 | 23.66383 | 54.36587 | 27777 ft | 491 kts | 206° |
| 2026-05-08 12:32 | 23.63279 | 54.34962 | 27782 ft | 491 kts | 206° |
| 2026-05-08 12:32 | 23.60210 | 54.33355 | 27788 ft | 492 kts | 206° |
| 2026-05-08 12:32 | 23.57111 | 54.31733 | 27789 ft | 491 kts | 206° |
| 2026-05-08 12:33 | 23.54011 | 54.30112 | 27785 ft | 491 kts | 206° |
| 2026-05-08 12:33 | 23.50961 | 54.28517 | 27790 ft | 492 kts | 206° |
| 2026-05-08 12:33 | 23.47852 | 54.26893 | 27785 ft | 492 kts | 206° |
| 2026-05-08 12:33 | 23.44768 | 54.25282 | 27785 ft | 491 kts | 206° |
| 2026-05-08 12:34 | 23.41683 | 54.23672 | 27785 ft | 492 kts | 206° |
| 2026-05-08 12:34 | 23.38585 | 54.22056 | 27786 ft | 493 kts | 206° |
| 2026-05-08 12:34 | 23.35514 | 54.20455 | 27787 ft | 493 kts | 206° |
| 2026-05-08 12:34 | 23.32407 | 54.18836 | 27787 ft | 493 kts | 206° |
| 2026-05-08 12:35 | 23.29316 | 54.17226 | 27786 ft | 494 kts | 206° |
| 2026-05-08 12:35 | 23.26194 | 54.15601 | 27784 ft | 493 kts | 206° |
| 2026-05-08 12:35 | 23.23117 | 54.14000 | 27783 ft | 494 kts | 206° |
| 2026-05-08 12:35 | 23.19989 | 54.12374 | 27774 ft | 494 kts | 206° |
| 2026-05-08 12:36 | 23.16908 | 54.10772 | 27771 ft | 494 kts | 206° |
| 2026-05-08 12:36 | 23.13791 | 54.09153 | 27768 ft | 494 kts | 206° |
| 2026-05-08 12:36 | 23.10670 | 54.07532 | 27768 ft | 494 kts | 206° |
| 2026-05-08 12:36 | 23.07589 | 54.05933 | 27763 ft | 494 kts | 206° |
| 2026-05-08 12:37 | 23.04465 | 54.04313 | 27759 ft | 494 kts | 206° |
| 2026-05-08 12:37 | 23.01383 | 54.02715 | 27755 ft | 494 kts | 206° |
| 2026-05-08 12:37 | 22.98278 | 54.01106 | 27749 ft | 494 kts | 206° |
| 2026-05-08 12:37 | 22.95176 | 53.99500 | 27751 ft | 494 kts | 206° |
| 2026-05-08 12:38 | 22.92062 | 53.97888 | 27757 ft | 494 kts | 206° |
| 2026-05-08 12:38 | 22.88972 | 53.96290 | 27764 ft | 495 kts | 206° |
| 2026-05-08 12:38 | 22.85868 | 53.94684 | 27768 ft | 494 kts | 206° |
| 2026-05-08 12:38 | 22.82736 | 53.93066 | 27771 ft | 495 kts | 206° |
| 2026-05-08 12:39 | 22.79645 | 53.91469 | 27773 ft | 495 kts | 206° |
| 2026-05-08 12:39 | 22.76512 | 53.89852 | 27774 ft | 496 kts | 206° |
| 2026-05-08 12:39 | 22.73392 | 53.88242 | 27773 ft | 496 kts | 206° |
| 2026-05-08 12:39 | 22.70302 | 53.86647 | 27772 ft | 494 kts | 206° |
| 2026-05-08 12:40 | 22.67167 | 53.85031 | 27775 ft | 495 kts | 206° |
| 2026-05-08 12:40 | 22.64083 | 53.83443 | 27777 ft | 495 kts | 206° |
| 2026-05-08 12:40 | 22.60962 | 53.81835 | 27779 ft | 494 kts | 206° |
| 2026-05-08 12:40 | 22.57870 | 53.80244 | 27780 ft | 494 kts | 206° |
| 2026-05-08 12:41 | 22.54742 | 53.78634 | 27783 ft | 494 kts | 206° |
| 2026-05-08 12:41 | 22.51662 | 53.77050 | 27787 ft | 495 kts | 206° |
| 2026-05-08 12:41 | 22.48528 | 53.75440 | 27791 ft | 494 kts | 206° |
| 2026-05-08 12:41 | 22.45411 | 53.73838 | 27793 ft | 494 kts | 206° |
| 2026-05-08 12:42 | 22.42326 | 53.72254 | 27792 ft | 495 kts | 206° |
| 2026-05-08 12:42 | 22.39192 | 53.70646 | 27791 ft | 495 kts | 206° |
| 2026-05-08 12:42 | 22.36099 | 53.69060 | 27790 ft | 495 kts | 206° |
| 2026-05-08 12:42 | 22.32972 | 53.67456 | 27789 ft | 495 kts | 206° |
| 2026-05-08 12:43 | 22.29881 | 53.65872 | 27789 ft | 494 kts | 206° |
| 2026-05-08 12:43 | 22.26750 | 53.64269 | 27789 ft | 495 kts | 206° |
| 2026-05-08 12:43 | 22.23658 | 53.62685 | 27790 ft | 495 kts | 206° |
| 2026-05-08 12:43 | 22.20533 | 53.61087 | 27790 ft | 495 kts | 206° |
| 2026-05-08 12:44 | 22.17409 | 53.59489 | 27790 ft | 495 kts | 206° |
| 2026-05-08 12:44 | 22.14325 | 53.57913 | 27789 ft | 494 kts | 206° |
| 2026-05-08 12:44 | 22.11198 | 53.56315 | 27789 ft | 494 kts | 206° |
| 2026-05-08 12:44 | 22.08080 | 53.54723 | 27789 ft | 494 kts | 206° |
| 2026-05-08 12:45 | 22.04979 | 53.53140 | 27788 ft | 494 kts | 206° |
| 2026-05-08 12:45 | 22.01869 | 53.51553 | 27789 ft | 494 kts | 206° |
| 2026-05-08 12:45 | 21.98749 | 53.49962 | 27789 ft | 495 kts | 206° |
| 2026-05-08 12:45 | 21.95630 | 53.48373 | 27785 ft | 496 kts | 206° |
| 2026-05-08 12:46 | 21.92509 | 53.46783 | 27784 ft | 495 kts | 206° |
| 2026-05-08 12:46 | 21.89392 | 53.45196 | 27787 ft | 495 kts | 206° |
| 2026-05-08 12:46 | 21.86307 | 53.43626 | 27793 ft | 495 kts | 206° |
| 2026-05-08 12:46 | 21.83183 | 53.42036 | 27792 ft | 494 kts | 206° |
| 2026-05-08 12:47 | 21.80065 | 53.40451 | 27791 ft | 495 kts | 206° |
| 2026-05-08 12:47 | 21.76951 | 53.38869 | 27791 ft | 495 kts | 206° |
| 2026-05-08 12:47 | 21.73843 | 53.37290 | 27794 ft | 495 kts | 205° |
| 2026-05-08 12:47 | 21.70721 | 53.35704 | 27793 ft | 495 kts | 206° |
| 2026-05-08 12:48 | 21.67607 | 53.34124 | 27792 ft | 495 kts | 205° |
| 2026-05-08 12:48 | 21.64495 | 53.32546 | 27792 ft | 495 kts | 205° |
| 2026-05-08 12:48 | 21.61382 | 53.30968 | 27785 ft | 495 kts | 205° |
| 2026-05-08 12:48 | 21.58262 | 53.29387 | 27783 ft | 495 kts | 205° |
| 2026-05-08 12:49 | 21.55117 | 53.27793 | 27784 ft | 494 kts | 205° |
| 2026-05-08 12:49 | 21.52004 | 53.26218 | 27779 ft | 495 kts | 205° |
| 2026-05-08 12:49 | 21.48889 | 53.24642 | 27777 ft | 496 kts | 205° |
| 2026-05-08 12:49 | 21.45764 | 53.23061 | 27780 ft | 495 kts | 205° |
| 2026-05-08 12:50 | 21.42651 | 53.21487 | 27780 ft | 495 kts | 205° |
| 2026-05-08 12:50 | 21.39523 | 53.19907 | 27780 ft | 496 kts | 205° |
| 2026-05-08 12:50 | 21.36402 | 53.18330 | 27779 ft | 495 kts | 205° |
| 2026-05-08 12:50 | 21.33367 | 53.16798 | 27775 ft | 479 kts | 205° |
| 2026-05-08 12:51 | 21.30365 | 53.15283 | 27771 ft | 463 kts | 205° |
| 2026-05-08 12:51 | 21.24736 | 53.12445 | 27770 ft | 431 kts | 205° |
| 2026-05-08 12:51 | 21.22079 | 53.11106 | 27768 ft | 415 kts | 205° |
| 2026-05-08 12:52 | 21.19505 | 53.09810 | 27767 ft | 399 kts | 205° |
| 2026-05-08 12:52 | 21.14702 | 53.07391 | 27764 ft | 365 kts | 205° |
| 2026-05-08 12:52 | 21.12420 | 53.06243 | 27779 ft | 362 kts | 205° |
| 2026-05-08 12:53 | 21.10117 | 53.05085 | 27778 ft | 365 kts | 205° |
| 2026-05-08 12:53 | 21.07830 | 53.03935 | 27779 ft | 364 kts | 205° |
| 2026-05-08 12:53 | 21.05535 | 53.02781 | 27781 ft | 364 kts | 205° |
| 2026-05-08 12:53 | 21.03248 | 53.01631 | 27790 ft | 365 kts | 205° |
| 2026-05-08 12:54 | 21.00926 | 53.00465 | 27794 ft | 371 kts | 206° |
| 2026-05-08 12:54 | 20.98666 | 52.99088 | 27801 ft | 377 kts | 212° |
| 2026-05-08 12:54 | 20.96443 | 52.97546 | 27791 ft | 384 kts | 213° |
| 2026-05-08 12:54 | 20.94171 | 52.95963 | 27796 ft | 391 kts | 213° |
| 2026-05-08 12:55 | 20.91887 | 52.94373 | 27799 ft | 399 kts | 213° |
| 2026-05-08 12:55 | 20.89519 | 52.92726 | 27796 ft | 407 kts | 213° |
| 2026-05-08 12:55 | 20.87127 | 52.91065 | 27804 ft | 415 kts | 213° |
| 2026-05-08 12:55 | 20.84675 | 52.89363 | 27796 ft | 423 kts | 213° |
| 2026-05-08 12:56 | 20.82184 | 52.87635 | 27807 ft | 432 kts | 213° |
| 2026-05-08 12:56 | 20.79647 | 52.85876 | 27804 ft | 441 kts | 213° |